sensor_id;sensor_type;location;lat;lon;timestamp;P1;durP1;ratioP1;P2;durP2;ratioP2
48040;SDS011;33815;48.386;11.738;2024-03-08T00:00:55;24.67;;;15.63;;
48040;SDS011;33815;48.386;11.738;2024-03-08T00:03:20;27.90;;;15.27;;
48040;SDS011;33815;48.386;11.738;2024-03-08T00:05:46;24.85;;;15.93;;
48040;SDS011;33815;48.386;11.738;2024-03-08T00:08:11;29.35;;;15.50;;
48040;SDS011;33815;48.386;11.738;2024-03-08T00:10:36;24.90;;;15.43;;
48040;SDS011;33815;48.386;11.738;2024-03-08T00:13:03;32.95;;;16.13;;
48040;SDS011;33815;48.386;11.738;2024-03-08T00:15:29;28.63;;;14.90;;
48040;SDS011;33815;48.386;11.738;2024-03-08T00:17:54;28.13;;;15.43;;
48040;SDS011;33815;48.386;11.738;2024-03-08T00:20:20;27.17;;;15.15;;
48040;SDS011;33815;48.386;11.738;2024-03-08T00:22:45;28.98;;;15.15;;
48040;SDS011;33815;48.386;11.738;2024-03-08T00:25:11;26.23;;;14.90;;
48040;SDS011;33815;48.386;11.738;2024-03-08T00:27:39;26.13;;;14.48;;
48040;SDS011;33815;48.386;11.738;2024-03-08T00:30:08;26.13;;;14.20;;
48040;SDS011;33815;48.386;11.738;2024-03-08T00:32:34;29.40;;;15.52;;
48040;SDS011;33815;48.386;11.738;2024-03-08T00:35:00;25.48;;;15.90;;
48040;SDS011;33815;48.386;11.738;2024-03-08T00:37:26;26.63;;;15.52;;
48040;SDS011;33815;48.386;11.738;2024-03-08T00:39:52;27.60;;;15.85;;
48040;SDS011;33815;48.386;11.738;2024-03-08T00:42:17;30.58;;;16.08;;
48040;SDS011;33815;48.386;11.738;2024-03-08T00:44:44;33.60;;;16.27;;
48040;SDS011;33815;48.386;11.738;2024-03-08T00:47:09;29.13;;;15.82;;
48040;SDS011;33815;48.386;11.738;2024-03-08T00:49:35;28.20;;;16.13;;
48040;SDS011;33815;48.386;11.738;2024-03-08T00:52:01;28.05;;;16.92;;
48040;SDS011;33815;48.386;11.738;2024-03-08T00:54:27;31.60;;;16.50;;
48040;SDS011;33815;48.386;11.738;2024-03-08T00:56:52;27.52;;;15.38;;
48040;SDS011;33815;48.386;11.738;2024-03-08T00:59:17;29.08;;;16.42;;
48040;SDS011;33815;48.386;11.738;2024-03-08T01:01:43;26.90;;;15.05;;
48040;SDS011;33815;48.386;11.738;2024-03-08T01:04:09;27.38;;;17.08;;
48040;SDS011;33815;48.386;11.738;2024-03-08T01:06:34;30.38;;;16.50;;
48040;SDS011;33815;48.386;11.738;2024-03-08T01:08:59;29.65;;;15.50;;
48040;SDS011;33815;48.386;11.738;2024-03-08T01:11:25;25.33;;;15.55;;
48040;SDS011;33815;48.386;11.738;2024-03-08T01:13:50;25.65;;;15.80;;
48040;SDS011;33815;48.386;11.738;2024-03-08T01:16:15;30.75;;;17.25;;
48040;SDS011;33815;48.386;11.738;2024-03-08T01:18:41;27.85;;;16.40;;
48040;SDS011;33815;48.386;11.738;2024-03-08T01:21:07;28.77;;;17.02;;
48040;SDS011;33815;48.386;11.738;2024-03-08T01:23:32;27.35;;;17.15;;
48040;SDS011;33815;48.386;11.738;2024-03-08T01:25:59;29.67;;;16.27;;
48040;SDS011;33815;48.386;11.738;2024-03-08T01:28:25;33.80;;;17.00;;
48040;SDS011;33815;48.386;11.738;2024-03-08T01:30:51;33.50;;;17.35;;
48040;SDS011;33815;48.386;11.738;2024-03-08T01:33:20;27.30;;;16.10;;
48040;SDS011;33815;48.386;11.738;2024-03-08T01:35:50;31.95;;;17.88;;
48040;SDS011;33815;48.386;11.738;2024-03-08T01:38:16;31.60;;;18.27;;
48040;SDS011;33815;48.386;11.738;2024-03-08T01:40:41;36.25;;;18.55;;
48040;SDS011;33815;48.386;11.738;2024-03-08T01:43:17;28.60;;;16.85;;
48040;SDS011;33815;48.386;11.738;2024-03-08T01:45:46;33.60;;;18.40;;
48040;SDS011;33815;48.386;11.738;2024-03-08T01:48:12;31.67;;;16.73;;
48040;SDS011;33815;48.386;11.738;2024-03-08T01:50:38;29.88;;;18.17;;
48040;SDS011;33815;48.386;11.738;2024-03-08T01:53:04;31.50;;;18.90;;
48040;SDS011;33815;48.386;11.738;2024-03-08T01:55:30;33.13;;;17.55;;
48040;SDS011;33815;48.386;11.738;2024-03-08T01:57:55;35.70;;;18.95;;
48040;SDS011;33815;48.386;11.738;2024-03-08T02:00:21;34.03;;;17.85;;
48040;SDS011;33815;48.386;11.738;2024-03-08T02:02:48;34.42;;;18.92;;
48040;SDS011;33815;48.386;11.738;2024-03-08T02:05:15;30.05;;;18.10;;
48040;SDS011;33815;48.386;11.738;2024-03-08T02:07:41;34.38;;;19.05;;
48040;SDS011;33815;48.386;11.738;2024-03-08T02:10:09;36.65;;;20.17;;
48040;SDS011;33815;48.386;11.738;2024-03-08T02:12:35;30.90;;;17.52;;
48040;SDS011;33815;48.386;11.738;2024-03-08T02:15:00;33.35;;;19.00;;
48040;SDS011;33815;48.386;11.738;2024-03-08T02:17:26;36.20;;;20.63;;
48040;SDS011;33815;48.386;11.738;2024-03-08T02:19:51;38.55;;;19.45;;
48040;SDS011;33815;48.386;11.738;2024-03-08T02:22:16;34.78;;;19.17;;
48040;SDS011;33815;48.386;11.738;2024-03-08T02:24:42;31.92;;;17.05;;
48040;SDS011;33815;48.386;11.738;2024-03-08T02:27:07;35.53;;;18.48;;
48040;SDS011;33815;48.386;11.738;2024-03-08T02:29:32;39.70;;;20.23;;
48040;SDS011;33815;48.386;11.738;2024-03-08T02:31:59;34.38;;;18.42;;
48040;SDS011;33815;48.386;11.738;2024-03-08T02:34:24;33.88;;;19.70;;
48040;SDS011;33815;48.386;11.738;2024-03-08T02:36:50;32.53;;;17.50;;
48040;SDS011;33815;48.386;11.738;2024-03-08T02:39:15;31.55;;;17.77;;
48040;SDS011;33815;48.386;11.738;2024-03-08T02:41:41;36.92;;;19.00;;
48040;SDS011;33815;48.386;11.738;2024-03-08T02:44:07;39.90;;;19.20;;
48040;SDS011;33815;48.386;11.738;2024-03-08T02:46:32;34.45;;;17.33;;
48040;SDS011;33815;48.386;11.738;2024-03-08T02:48:57;30.58;;;18.13;;
48040;SDS011;33815;48.386;11.738;2024-03-08T02:51:23;32.85;;;17.70;;
48040;SDS011;33815;48.386;11.738;2024-03-08T02:53:48;36.85;;;19.50;;
48040;SDS011;33815;48.386;11.738;2024-03-08T02:56:16;32.45;;;17.50;;
48040;SDS011;33815;48.386;11.738;2024-03-08T02:58:42;35.78;;;17.60;;
48040;SDS011;33815;48.386;11.738;2024-03-08T03:01:08;30.58;;;17.85;;
48040;SDS011;33815;48.386;11.738;2024-03-08T03:03:35;30.58;;;18.50;;
48040;SDS011;33815;48.386;11.738;2024-03-08T03:06:00;37.10;;;18.40;;
48040;SDS011;33815;48.386;11.738;2024-03-08T03:08:25;31.80;;;18.05;;
48040;SDS011;33815;48.386;11.738;2024-03-08T03:10:51;36.30;;;18.35;;
48040;SDS011;33815;48.386;11.738;2024-03-08T03:13:16;30.40;;;17.20;;
48040;SDS011;33815;48.386;11.738;2024-03-08T03:15:41;30.83;;;17.00;;
48040;SDS011;33815;48.386;11.738;2024-03-08T03:18:06;33.42;;;18.65;;
48040;SDS011;33815;48.386;11.738;2024-03-08T03:20:32;30.63;;;16.67;;
48040;SDS011;33815;48.386;11.738;2024-03-08T03:22:59;33.50;;;18.15;;
48040;SDS011;33815;48.386;11.738;2024-03-08T03:25:26;36.55;;;18.63;;
48040;SDS011;33815;48.386;11.738;2024-03-08T03:27:57;36.78;;;17.92;;
48040;SDS011;33815;48.386;11.738;2024-03-08T03:30:23;34.95;;;18.63;;
48040;SDS011;33815;48.386;11.738;2024-03-08T03:32:51;35.25;;;19.27;;
48040;SDS011;33815;48.386;11.738;2024-03-08T03:35:17;35.55;;;19.40;;
48040;SDS011;33815;48.386;11.738;2024-03-08T03:37:43;42.55;;;19.25;;
48040;SDS011;33815;48.386;11.738;2024-03-08T03:40:28;44.17;;;19.05;;
48040;SDS011;33815;48.386;11.738;2024-03-08T03:42:54;35.53;;;17.90;;
48040;SDS011;33815;48.386;11.738;2024-03-08T03:45:19;37.25;;;19.65;;
48040;SDS011;33815;48.386;11.738;2024-03-08T03:47:45;34.25;;;20.45;;
48040;SDS011;33815;48.386;11.738;2024-03-08T03:50:11;41.78;;;19.40;;
48040;SDS011;33815;48.386;11.738;2024-03-08T03:52:36;36.47;;;20.08;;
48040;SDS011;33815;48.386;11.738;2024-03-08T03:55:01;37.22;;;21.02;;
48040;SDS011;33815;48.386;11.738;2024-03-08T03:57:29;35.95;;;20.15;;
48040;SDS011;33815;48.386;11.738;2024-03-08T03:59:55;43.53;;;22.50;;
48040;SDS011;33815;48.386;11.738;2024-03-08T04:02:20;44.00;;;22.13;;
48040;SDS011;33815;48.386;11.738;2024-03-08T04:04:46;42.67;;;22.35;;
48040;SDS011;33815;48.386;11.738;2024-03-08T04:07:12;43.58;;;21.52;;
48040;SDS011;33815;48.386;11.738;2024-03-08T04:09:37;47.00;;;22.90;;
48040;SDS011;33815;48.386;11.738;2024-03-08T04:12:02;41.83;;;22.80;;
48040;SDS011;33815;48.386;11.738;2024-03-08T04:14:28;43.53;;;23.35;;
48040;SDS011;33815;48.386;11.738;2024-03-08T04:16:53;48.90;;;25.08;;
48040;SDS011;33815;48.386;11.738;2024-03-08T04:19:18;43.65;;;23.42;;
48040;SDS011;33815;48.386;11.738;2024-03-08T04:21:44;46.60;;;23.08;;
48040;SDS011;33815;48.386;11.738;2024-03-08T04:24:09;47.65;;;24.30;;
48040;SDS011;33815;48.386;11.738;2024-03-08T04:26:35;50.55;;;25.77;;
48040;SDS011;33815;48.386;11.738;2024-03-08T04:29:00;44.75;;;23.67;;
48040;SDS011;33815;48.386;11.738;2024-03-08T04:31:26;52.67;;;23.15;;
48040;SDS011;33815;48.386;11.738;2024-03-08T04:33:51;48.45;;;25.40;;
48040;SDS011;33815;48.386;11.738;2024-03-08T04:36:17;47.78;;;24.15;;
48040;SDS011;33815;48.386;11.738;2024-03-08T04:38:42;54.80;;;25.10;;
48040;SDS011;33815;48.386;11.738;2024-03-08T04:41:07;52.90;;;25.90;;
48040;SDS011;33815;48.386;11.738;2024-03-08T04:43:33;48.08;;;25.27;;
48040;SDS011;33815;48.386;11.738;2024-03-08T04:45:59;47.92;;;24.55;;
48040;SDS011;33815;48.386;11.738;2024-03-08T04:48:24;53.63;;;26.35;;
48040;SDS011;33815;48.386;11.738;2024-03-08T04:50:51;48.80;;;25.42;;
48040;SDS011;33815;48.386;11.738;2024-03-08T04:53:18;51.53;;;24.63;;
48040;SDS011;33815;48.386;11.738;2024-03-08T04:55:43;51.17;;;25.77;;
48040;SDS011;33815;48.386;11.738;2024-03-08T04:58:09;55.63;;;26.08;;
48040;SDS011;33815;48.386;11.738;2024-03-08T05:00:34;53.70;;;26.48;;
48040;SDS011;33815;48.386;11.738;2024-03-08T05:03:00;57.75;;;27.25;;
48040;SDS011;33815;48.386;11.738;2024-03-08T05:05:25;53.45;;;27.02;;
48040;SDS011;33815;48.386;11.738;2024-03-08T05:07:53;57.00;;;26.80;;
48040;SDS011;33815;48.386;11.738;2024-03-08T05:10:18;58.97;;;25.60;;
48040;SDS011;33815;48.386;11.738;2024-03-08T05:12:44;56.70;;;27.65;;
48040;SDS011;33815;48.386;11.738;2024-03-08T05:15:09;62.15;;;26.15;;
48040;SDS011;33815;48.386;11.738;2024-03-08T05:17:35;53.88;;;25.50;;
48040;SDS011;33815;48.386;11.738;2024-03-08T05:20:00;57.63;;;26.30;;
48040;SDS011;33815;48.386;11.738;2024-03-08T05:22:26;56.67;;;26.83;;
48040;SDS011;33815;48.386;11.738;2024-03-08T05:24:51;58.15;;;28.50;;
48040;SDS011;33815;48.386;11.738;2024-03-08T05:27:16;53.90;;;27.52;;
48040;SDS011;33815;48.386;11.738;2024-03-08T05:29:42;56.38;;;26.50;;
48040;SDS011;33815;48.386;11.738;2024-03-08T05:32:07;55.53;;;25.40;;
48040;SDS011;33815;48.386;11.738;2024-03-08T05:34:32;57.15;;;27.00;;
48040;SDS011;33815;48.386;11.738;2024-03-08T05:36:58;57.05;;;28.00;;
48040;SDS011;33815;48.386;11.738;2024-03-08T05:39:23;59.75;;;29.40;;
48040;SDS011;33815;48.386;11.738;2024-03-08T05:41:49;55.55;;;25.65;;
48040;SDS011;33815;48.386;11.738;2024-03-08T05:44:15;60.92;;;28.90;;
48040;SDS011;33815;48.386;11.738;2024-03-08T05:46:44;57.63;;;28.58;;
48040;SDS011;33815;48.386;11.738;2024-03-08T05:49:09;53.58;;;26.63;;
48040;SDS011;33815;48.386;11.738;2024-03-08T05:51:38;61.60;;;30.13;;
48040;SDS011;33815;48.386;11.738;2024-03-08T05:54:06;57.90;;;27.75;;
48040;SDS011;33815;48.386;11.738;2024-03-08T05:56:33;61.28;;;28.83;;
48040;SDS011;33815;48.386;11.738;2024-03-08T05:58:59;63.40;;;28.75;;
48040;SDS011;33815;48.386;11.738;2024-03-08T06:01:25;59.78;;;27.30;;
48040;SDS011;33815;48.386;11.738;2024-03-08T06:03:51;52.53;;;26.30;;
48040;SDS011;33815;48.386;11.738;2024-03-08T06:06:19;68.25;;;30.45;;
48040;SDS011;33815;48.386;11.738;2024-03-08T06:08:45;65.68;;;28.80;;
48040;SDS011;33815;48.386;11.738;2024-03-08T06:11:12;55.10;;;27.83;;
48040;SDS011;33815;48.386;11.738;2024-03-08T06:13:37;62.58;;;29.38;;
48040;SDS011;33815;48.386;11.738;2024-03-08T06:16:03;59.38;;;29.50;;
48040;SDS011;33815;48.386;11.738;2024-03-08T06:18:30;64.53;;;31.33;;
48040;SDS011;33815;48.386;11.738;2024-03-08T06:20:55;60.85;;;27.88;;
48040;SDS011;33815;48.386;11.738;2024-03-08T06:23:21;56.92;;;28.55;;
48040;SDS011;33815;48.386;11.738;2024-03-08T06:25:46;55.95;;;25.70;;
48040;SDS011;33815;48.386;11.738;2024-03-08T06:28:12;62.80;;;30.25;;
48040;SDS011;33815;48.386;11.738;2024-03-08T06:30:39;56.50;;;28.50;;
48040;SDS011;33815;48.386;11.738;2024-03-08T06:33:04;56.47;;;28.55;;
48040;SDS011;33815;48.386;11.738;2024-03-08T06:35:29;55.03;;;28.30;;
48040;SDS011;33815;48.386;11.738;2024-03-08T06:37:57;57.17;;;28.02;;
48040;SDS011;33815;48.386;11.738;2024-03-08T06:40:23;62.38;;;29.75;;
48040;SDS011;33815;48.386;11.738;2024-03-08T06:42:48;61.25;;;27.77;;
48040;SDS011;33815;48.386;11.738;2024-03-08T06:45:13;63.33;;;30.17;;
48040;SDS011;33815;48.386;11.738;2024-03-08T06:47:44;60.53;;;28.23;;
48040;SDS011;33815;48.386;11.738;2024-03-08T06:50:10;57.80;;;28.30;;
48040;SDS011;33815;48.386;11.738;2024-03-08T06:52:36;59.85;;;31.50;;
48040;SDS011;33815;48.386;11.738;2024-03-08T06:55:01;62.40;;;31.55;;
48040;SDS011;33815;48.386;11.738;2024-03-08T06:57:27;58.85;;;28.30;;
48040;SDS011;33815;48.386;11.738;2024-03-08T06:59:54;55.60;;;28.67;;
48040;SDS011;33815;48.386;11.738;2024-03-08T07:02:19;56.78;;;28.20;;
48040;SDS011;33815;48.386;11.738;2024-03-08T07:04:49;51.88;;;26.83;;
48040;SDS011;33815;48.386;11.738;2024-03-08T07:07:15;57.08;;;28.02;;
48040;SDS011;33815;48.386;11.738;2024-03-08T07:09:40;59.28;;;28.30;;
48040;SDS011;33815;48.386;11.738;2024-03-08T07:12:07;54.00;;;28.63;;
48040;SDS011;33815;48.386;11.738;2024-03-08T07:14:33;62.03;;;29.10;;
48040;SDS011;33815;48.386;11.738;2024-03-08T07:16:58;55.78;;;27.52;;
48040;SDS011;33815;48.386;11.738;2024-03-08T07:19:23;56.28;;;27.60;;
48040;SDS011;33815;48.386;11.738;2024-03-08T07:21:49;58.67;;;28.10;;
48040;SDS011;33815;48.386;11.738;2024-03-08T07:24:14;53.97;;;28.10;;
48040;SDS011;33815;48.386;11.738;2024-03-08T07:26:45;54.50;;;27.05;;
48040;SDS011;33815;48.386;11.738;2024-03-08T07:29:14;55.20;;;28.83;;
48040;SDS011;33815;48.386;11.738;2024-03-08T07:31:40;55.42;;;27.05;;
48040;SDS011;33815;48.386;11.738;2024-03-08T07:34:34;61.25;;;30.13;;
48040;SDS011;33815;48.386;11.738;2024-03-08T07:36:59;55.03;;;28.10;;
48040;SDS011;33815;48.386;11.738;2024-03-08T07:39:24;51.45;;;26.67;;
48040;SDS011;33815;48.386;11.738;2024-03-08T07:41:50;51.50;;;27.50;;
48040;SDS011;33815;48.386;11.738;2024-03-08T07:44:17;50.30;;;26.95;;
48040;SDS011;33815;48.386;11.738;2024-03-08T07:46:43;56.22;;;27.95;;
48040;SDS011;33815;48.386;11.738;2024-03-08T07:49:08;56.53;;;27.45;;
48040;SDS011;33815;48.386;11.738;2024-03-08T07:51:36;48.20;;;24.50;;
48040;SDS011;33815;48.386;11.738;2024-03-08T07:54:02;46.17;;;25.50;;
48040;SDS011;33815;48.386;11.738;2024-03-08T07:56:29;50.65;;;25.27;;
48040;SDS011;33815;48.386;11.738;2024-03-08T07:58:54;52.25;;;27.33;;
48040;SDS011;33815;48.386;11.738;2024-03-08T08:01:20;54.53;;;27.02;;
48040;SDS011;33815;48.386;11.738;2024-03-08T08:03:45;52.97;;;27.17;;
48040;SDS011;33815;48.386;11.738;2024-03-08T08:06:11;49.03;;;26.65;;
48040;SDS011;33815;48.386;11.738;2024-03-08T08:08:41;57.00;;;27.25;;
48040;SDS011;33815;48.386;11.738;2024-03-08T08:11:07;54.72;;;26.13;;
48040;SDS011;33815;48.386;11.738;2024-03-08T08:13:33;49.83;;;26.73;;
48040;SDS011;33815;48.386;11.738;2024-03-08T08:15:59;43.20;;;23.73;;
48040;SDS011;33815;48.386;11.738;2024-03-08T08:18:24;44.42;;;24.35;;
48040;SDS011;33815;48.386;11.738;2024-03-08T08:20:50;50.60;;;27.45;;
48040;SDS011;33815;48.386;11.738;2024-03-08T08:23:17;50.17;;;25.48;;
48040;SDS011;33815;48.386;11.738;2024-03-08T08:25:44;45.40;;;24.77;;
48040;SDS011;33815;48.386;11.738;2024-03-08T08:28:09;42.80;;;23.02;;
48040;SDS011;33815;48.386;11.738;2024-03-08T08:30:35;44.78;;;25.63;;
48040;SDS011;33815;48.386;11.738;2024-03-08T08:33:00;44.90;;;25.10;;
48040;SDS011;33815;48.386;11.738;2024-03-08T08:35:25;44.97;;;24.17;;
48040;SDS011;33815;48.386;11.738;2024-03-08T08:37:51;45.63;;;23.27;;
48040;SDS011;33815;48.386;11.738;2024-03-08T08:40:16;44.23;;;24.50;;
48040;SDS011;33815;48.386;11.738;2024-03-08T08:42:44;44.63;;;23.42;;
48040;SDS011;33815;48.386;11.738;2024-03-08T08:45:10;37.17;;;21.35;;
48040;SDS011;33815;48.386;11.738;2024-03-08T08:47:36;38.42;;;21.88;;
48040;SDS011;33815;48.386;11.738;2024-03-08T08:50:02;41.38;;;21.85;;
48040;SDS011;33815;48.386;11.738;2024-03-08T08:52:29;37.95;;;22.45;;
48040;SDS011;33815;48.386;11.738;2024-03-08T08:54:55;39.50;;;22.00;;
48040;SDS011;33815;48.386;11.738;2024-03-08T08:57:21;44.38;;;24.42;;
48040;SDS011;33815;48.386;11.738;2024-03-08T08:59:46;41.00;;;22.50;;
48040;SDS011;33815;48.386;11.738;2024-03-08T09:02:12;39.53;;;21.17;;
48040;SDS011;33815;48.386;11.738;2024-03-08T09:04:38;40.83;;;21.58;;
48040;SDS011;33815;48.386;11.738;2024-03-08T09:07:03;34.15;;;20.35;;
48040;SDS011;33815;48.386;11.738;2024-03-08T09:09:31;33.85;;;19.48;;
48040;SDS011;33815;48.386;11.738;2024-03-08T09:11:56;34.33;;;19.77;;
48040;SDS011;33815;48.386;11.738;2024-03-08T09:14:22;37.92;;;20.70;;
48040;SDS011;33815;48.386;11.738;2024-03-08T09:16:47;34.97;;;20.50;;
48040;SDS011;33815;48.386;11.738;2024-03-08T09:19:12;35.90;;;21.03;;
48040;SDS011;33815;48.386;11.738;2024-03-08T09:21:38;38.72;;;20.92;;
48040;SDS011;33815;48.386;11.738;2024-03-08T09:24:05;37.20;;;18.58;;
48040;SDS011;33815;48.386;11.738;2024-03-08T09:26:31;37.08;;;19.70;;
48040;SDS011;33815;48.386;11.738;2024-03-08T09:28:58;36.83;;;20.30;;
48040;SDS011;33815;48.386;11.738;2024-03-08T09:31:23;35.67;;;18.38;;
48040;SDS011;33815;48.386;11.738;2024-03-08T09:33:48;35.70;;;18.85;;
48040;SDS011;33815;48.386;11.738;2024-03-08T09:36:14;33.17;;;19.25;;
48040;SDS011;33815;48.386;11.738;2024-03-08T09:38:39;30.40;;;18.50;;
48040;SDS011;33815;48.386;11.738;2024-03-08T09:41:05;34.90;;;18.98;;
48040;SDS011;33815;48.386;11.738;2024-03-08T09:43:30;32.30;;;18.75;;
48040;SDS011;33815;48.386;11.738;2024-03-08T09:45:56;30.15;;;18.65;;
48040;SDS011;33815;48.386;11.738;2024-03-08T09:48:22;30.40;;;18.27;;
48040;SDS011;33815;48.386;11.738;2024-03-08T09:50:48;34.92;;;18.63;;
48040;SDS011;33815;48.386;11.738;2024-03-08T09:53:14;25.15;;;16.35;;
48040;SDS011;33815;48.386;11.738;2024-03-08T09:55:39;33.50;;;17.40;;
48040;SDS011;33815;48.386;11.738;2024-03-08T09:58:10;28.73;;;18.05;;
48040;SDS011;33815;48.386;11.738;2024-03-08T10:00:43;29.35;;;17.15;;
48040;SDS011;33815;48.386;11.738;2024-03-08T10:03:08;32.25;;;17.17;;
48040;SDS011;33815;48.386;11.738;2024-03-08T10:05:34;28.13;;;16.88;;
48040;SDS011;33815;48.386;11.738;2024-03-08T10:07:59;27.08;;;16.25;;
48040;SDS011;33815;48.386;11.738;2024-03-08T10:10:25;26.17;;;15.73;;
48040;SDS011;33815;48.386;11.738;2024-03-08T10:12:50;30.90;;;16.90;;
48040;SDS011;33815;48.386;11.738;2024-03-08T10:15:16;25.00;;;15.05;;
48040;SDS011;33815;48.386;11.738;2024-03-08T10:17:42;25.40;;;16.08;;
48040;SDS011;33815;48.386;11.738;2024-03-08T10:20:17;29.30;;;17.65;;
48040;SDS011;33815;48.386;11.738;2024-03-08T10:22:43;25.52;;;16.60;;
48040;SDS011;33815;48.386;11.738;2024-03-08T10:25:12;28.33;;;17.05;;
48040;SDS011;33815;48.386;11.738;2024-03-08T10:27:38;28.90;;;16.63;;
48040;SDS011;33815;48.386;11.738;2024-03-08T10:30:06;29.33;;;16.55;;
48040;SDS011;33815;48.386;11.738;2024-03-08T10:32:44;26.23;;;16.10;;
48040;SDS011;33815;48.386;11.738;2024-03-08T10:35:10;25.30;;;16.33;;
48040;SDS011;33815;48.386;11.738;2024-03-08T10:37:45;27.65;;;15.40;;
48040;SDS011;33815;48.386;11.738;2024-03-08T10:40:20;27.52;;;15.60;;
48040;SDS011;33815;48.386;11.738;2024-03-08T10:45:36;23.10;;;14.63;;
48040;SDS011;33815;48.386;11.738;2024-03-08T10:50:57;24.70;;;15.00;;
48040;SDS011;33815;48.386;11.738;2024-03-08T10:53:26;22.65;;;14.13;;
48040;SDS011;33815;48.386;11.738;2024-03-08T10:55:52;24.10;;;15.30;;
48040;SDS011;33815;48.386;11.738;2024-03-08T10:58:19;24.05;;;14.02;;
48040;SDS011;33815;48.386;11.738;2024-03-08T11:00:47;22.58;;;13.88;;
48040;SDS011;33815;48.386;11.738;2024-03-08T11:06:04;22.13;;;14.05;;
48040;SDS011;33815;48.386;11.738;2024-03-08T11:08:30;20.38;;;12.77;;
48040;SDS011;33815;48.386;11.738;2024-03-08T11:10:56;23.20;;;14.50;;
48040;SDS011;33815;48.386;11.738;2024-03-08T11:13:37;23.67;;;13.70;;
48040;SDS011;33815;48.386;11.738;2024-03-08T11:16:07;23.60;;;12.53;;
48040;SDS011;33815;48.386;11.738;2024-03-08T11:18:35;19.10;;;12.50;;
48040;SDS011;33815;48.386;11.738;2024-03-08T11:21:02;24.50;;;14.30;;
48040;SDS011;33815;48.386;11.738;2024-03-08T11:23:31;18.70;;;13.52;;
48040;SDS011;33815;48.386;11.738;2024-03-08T11:25:58;20.98;;;13.75;;
48040;SDS011;33815;48.386;11.738;2024-03-08T11:28:24;19.88;;;11.98;;
48040;SDS011;33815;48.386;11.738;2024-03-08T11:33:24;19.75;;;13.18;;
48040;SDS011;33815;48.386;11.738;2024-03-08T11:35:51;22.23;;;13.95;;
48040;SDS011;33815;48.386;11.738;2024-03-08T11:38:16;20.95;;;13.15;;
48040;SDS011;33815;48.386;11.738;2024-03-08T11:40:44;21.52;;;13.07;;
48040;SDS011;33815;48.386;11.738;2024-03-08T11:43:14;21.15;;;13.43;;
48040;SDS011;33815;48.386;11.738;2024-03-08T11:45:41;20.48;;;13.00;;
48040;SDS011;33815;48.386;11.738;2024-03-08T11:48:06;21.83;;;12.00;;
48040;SDS011;33815;48.386;11.738;2024-03-08T11:50:31;21.00;;;13.10;;
48040;SDS011;33815;48.386;11.738;2024-03-08T11:53:03;20.85;;;13.10;;
48040;SDS011;33815;48.386;11.738;2024-03-08T11:55:30;18.98;;;12.15;;
48040;SDS011;33815;48.386;11.738;2024-03-08T11:58:04;18.67;;;12.85;;
48040;SDS011;33815;48.386;11.738;2024-03-08T12:00:33;18.40;;;11.75;;
48040;SDS011;33815;48.386;11.738;2024-03-08T12:03:03;18.95;;;12.10;;
48040;SDS011;33815;48.386;11.738;2024-03-08T12:05:29;17.60;;;11.10;;
48040;SDS011;33815;48.386;11.738;2024-03-08T12:07:59;16.98;;;9.77;;
48040;SDS011;33815;48.386;11.738;2024-03-08T12:10:25;18.65;;;11.15;;
48040;SDS011;33815;48.386;11.738;2024-03-08T12:12:52;15.25;;;10.40;;
48040;SDS011;33815;48.386;11.738;2024-03-08T12:15:19;15.57;;;10.35;;
48040;SDS011;33815;48.386;11.738;2024-03-08T12:17:45;15.98;;;10.27;;
48040;SDS011;33815;48.386;11.738;2024-03-08T12:20:16;16.15;;;10.52;;
48040;SDS011;33815;48.386;11.738;2024-03-08T12:22:43;19.55;;;12.00;;
48040;SDS011;33815;48.386;11.738;2024-03-08T12:25:10;15.45;;;10.70;;
48040;SDS011;33815;48.386;11.738;2024-03-08T12:27:37;17.30;;;11.98;;
48040;SDS011;33815;48.386;11.738;2024-03-08T12:32:55;18.45;;;12.98;;
48040;SDS011;33815;48.386;11.738;2024-03-08T12:35:22;18.25;;;12.35;;
48040;SDS011;33815;48.386;11.738;2024-03-08T12:37:53;18.98;;;12.52;;
48040;SDS011;33815;48.386;11.738;2024-03-08T12:40:38;17.40;;;11.68;;
48040;SDS011;33815;48.386;11.738;2024-03-08T12:45:32;16.70;;;10.80;;
48040;SDS011;33815;48.386;11.738;2024-03-08T12:47:57;16.67;;;9.82;;
48040;SDS011;33815;48.386;11.738;2024-03-08T12:50:24;14.05;;;9.90;;
48040;SDS011;33815;48.386;11.738;2024-03-08T12:52:50;16.25;;;10.52;;
48040;SDS011;33815;48.386;11.738;2024-03-08T12:55:15;16.92;;;10.57;;
48040;SDS011;33815;48.386;11.738;2024-03-08T12:57:41;14.32;;;9.60;;
48040;SDS011;33815;48.386;11.738;2024-03-08T13:00:08;11.38;;;9.55;;
48040;SDS011;33815;48.386;11.738;2024-03-08T13:02:48;12.23;;;9.10;;
48040;SDS011;33815;48.386;11.738;2024-03-08T13:05:14;13.18;;;8.65;;
48040;SDS011;33815;48.386;11.738;2024-03-08T13:07:40;13.93;;;9.32;;
48040;SDS011;33815;48.386;11.738;2024-03-08T13:10:10;13.13;;;8.52;;
48040;SDS011;33815;48.386;11.738;2024-03-08T13:12:39;14.90;;;9.50;;
48040;SDS011;33815;48.386;11.738;2024-03-08T13:15:04;12.63;;;8.95;;
48040;SDS011;33815;48.386;11.738;2024-03-08T13:17:30;13.57;;;9.68;;
48040;SDS011;33815;48.386;11.738;2024-03-08T13:19:55;14.67;;;10.83;;
48040;SDS011;33815;48.386;11.738;2024-03-08T13:22:22;14.45;;;9.73;;
48040;SDS011;33815;48.386;11.738;2024-03-08T13:24:49;12.85;;;9.65;;
48040;SDS011;33815;48.386;11.738;2024-03-08T13:27:15;12.60;;;8.80;;
48040;SDS011;33815;48.386;11.738;2024-03-08T13:29:47;13.40;;;10.40;;
48040;SDS011;33815;48.386;11.738;2024-03-08T13:32:13;14.07;;;9.88;;
48040;SDS011;33815;48.386;11.738;2024-03-08T13:34:42;16.27;;;10.18;;
48040;SDS011;33815;48.386;11.738;2024-03-08T13:37:10;15.20;;;10.02;;
48040;SDS011;33815;48.386;11.738;2024-03-08T13:39:36;14.30;;;10.25;;
48040;SDS011;33815;48.386;11.738;2024-03-08T13:42:14;17.50;;;9.90;;
48040;SDS011;33815;48.386;11.738;2024-03-08T13:44:45;16.00;;;9.57;;
48040;SDS011;33815;48.386;11.738;2024-03-08T13:47:11;15.48;;;10.40;;
48040;SDS011;33815;48.386;11.738;2024-03-08T13:49:38;15.88;;;10.55;;
48040;SDS011;33815;48.386;11.738;2024-03-08T13:52:04;13.85;;;9.70;;
48040;SDS011;33815;48.386;11.738;2024-03-08T13:54:29;12.75;;;9.10;;
48040;SDS011;33815;48.386;11.738;2024-03-08T13:56:56;12.68;;;8.82;;
48040;SDS011;33815;48.386;11.738;2024-03-08T13:59:22;14.23;;;9.77;;
48040;SDS011;33815;48.386;11.738;2024-03-08T14:01:47;14.90;;;9.38;;
48040;SDS011;33815;48.386;11.738;2024-03-08T14:04:13;17.02;;;9.70;;
48040;SDS011;33815;48.386;11.738;2024-03-08T14:06:39;12.52;;;9.23;;
48040;SDS011;33815;48.386;11.738;2024-03-08T14:09:04;12.65;;;9.05;;
48040;SDS011;33815;48.386;11.738;2024-03-08T14:11:32;15.77;;;9.23;;
48040;SDS011;33815;48.386;11.738;2024-03-08T14:13:58;10.88;;;7.93;;
48040;SDS011;33815;48.386;11.738;2024-03-08T14:16:23;12.90;;;9.13;;
48040;SDS011;33815;48.386;11.738;2024-03-08T14:18:48;12.35;;;8.90;;
48040;SDS011;33815;48.386;11.738;2024-03-08T14:21:14;11.52;;;8.27;;
48040;SDS011;33815;48.386;11.738;2024-03-08T14:23:41;13.95;;;9.13;;